createdAt,value
2018-05-09T00:00:48.257Z,49.10
2018-05-09T00:03:16.942Z,49.20
2018-05-09T00:05:44.614Z,49.40
2018-05-09T00:08:12.166Z,49.60
2018-05-09T00:10:39.992Z,49.60
2018-05-09T00:13:08.434Z,49.90
2018-05-09T00:15:35.964Z,50.00
2018-05-09T00:18:03.481Z,50.00
2018-05-09T00:20:31.758Z,50.00
2018-05-09T00:22:59.429Z,50.10
2018-05-09T00:25:27.982Z,50.30
2018-05-09T00:27:55.981Z,50.30
2018-05-09T00:30:23.615Z,50.40
2018-05-09T00:32:51.175Z,50.50
2018-05-09T00:35:19.100Z,50.60
2018-05-09T00:37:47.685Z,50.70
2018-05-09T00:40:15.674Z,51.00
2018-05-09T00:42:43.209Z,51.00
2018-05-09T00:45:10.792Z,51.10
2018-05-09T00:47:39.148Z,51.40
2018-05-09T00:50:07.675Z,51.60
2018-05-09T00:52:35.334Z,51.60
2018-05-09T00:55:02.894Z,51.70
2018-05-09T00:57:31.054Z,51.80
2018-05-09T00:59:59.528Z,51.90
2018-05-09T01:02:27.318Z,52.00
2018-05-09T01:04:55.023Z,52.00
2018-05-09T01:07:22.585Z,52.30
2018-05-09T01:09:50.925Z,52.50
2018-05-09T01:12:19.054Z,52.50
2018-05-09T01:14:46.729Z,52.90
2018-05-09T01:17:15.073Z,52.90
2018-05-09T01:19:43.553Z,53.10
2018-05-09T01:22:11.092Z,53.40
2018-05-09T01:24:39.401Z,53.80
2018-05-09T01:27:06.913Z,53.80
2018-05-09T01:29:35.100Z,54.00
2018-05-09T01:32:02.639Z,54.10
2018-05-09T01:34:30.134Z,54.30
2018-05-09T01:36:57.971Z,54.30
2018-05-09T01:39:25.717Z,54.50
2018-05-09T01:41:53.245Z,54.70
2018-05-09T01:44:20.951Z,54.80
2018-05-09T01:46:48.453Z,54.90
2018-05-09T01:49:16.871Z,55.20
2018-05-09T01:51:44.739Z,55.20
2018-05-09T01:54:12.582Z,55.20
2018-05-09T01:56:40.467Z,55.30
2018-05-09T01:59:08.665Z,55.50
2018-05-09T02:01:36.713Z,55.40
2018-05-09T02:04:04.226Z,55.70
2018-05-09T02:06:32.506Z,56.10
2018-05-09T02:09:00.010Z,56.00
2018-05-09T02:11:27.686Z,56.10
2018-05-09T02:13:55.897Z,56.00
2018-05-09T02:16:23.811Z,56.20
2018-05-09T02:18:51.757Z,56.40
2018-05-09T02:21:19.343Z,56.50
2018-05-09T02:23:47.741Z,56.50
2018-05-09T02:26:15.521Z,56.60
2018-05-09T02:28:43.053Z,56.80
2018-05-09T02:31:10.651Z,56.90
2018-05-09T02:33:38.189Z,57.00
2018-05-09T02:36:05.707Z,57.10
2018-05-09T02:38:35.150Z,57.40
2018-05-09T02:41:02.675Z,57.40
2018-05-09T02:43:30.189Z,57.60
2018-05-09T02:45:58.035Z,57.50
2018-05-09T02:48:25.537Z,57.80
2018-05-09T02:50:53.873Z,58.30
2018-05-09T02:53:21.385Z,58.30
2018-05-09T02:55:48.947Z,58.30
2018-05-09T02:58:17.223Z,58.90
2018-05-09T03:00:44.749Z,58.80
2018-05-09T03:03:12.441Z,58.80
2018-05-09T03:05:39.971Z,59.10
2018-05-09T03:08:07.814Z,59.20
2018-05-09T03:10:35.357Z,59.50
2018-05-09T03:13:02.951Z,59.70
2018-05-09T03:15:30.474Z,60.00
2018-05-09T03:17:59.867Z,60.40
2018-05-09T03:20:27.543Z,60.40
2018-05-09T03:22:55.066Z,60.50
2018-05-09T03:25:23.171Z,60.70
2018-05-09T03:27:50.808Z,60.60
2018-05-09T03:30:19.479Z,61.70
2018-05-09T03:32:47.055Z,60.90
2018-05-09T03:35:15.364Z,60.80
2018-05-09T03:37:42.982Z,60.90
2018-05-09T03:40:10.515Z,61.10
2018-05-09T03:42:38.028Z,60.90
2018-05-09T03:45:06.403Z,60.70
2018-05-09T03:47:33.937Z,60.70
2018-05-09T03:50:02.228Z,60.50
2018-05-09T03:52:29.778Z,60.30
2018-05-09T03:54:57.361Z,59.90
2018-05-09T03:57:24.881Z,59.80
2018-05-09T03:59:52.413Z,59.70
2018-05-09T04:02:37.875Z,59.40
2018-05-09T04:05:18.030Z,59.00
2018-05-09T04:07:57.406Z,59.10
2018-05-09T04:10:25.037Z,59.00
2018-05-09T04:12:52.573Z,58.60
2018-05-09T04:15:20.860Z,56.80
2018-05-09T04:17:48.445Z,54.30
2018-05-09T04:20:16.180Z,52.10
2018-05-09T04:22:44.177Z,50.30
2018-05-09T04:25:11.737Z,49.00
2018-05-09T04:27:39.292Z,47.50
2018-05-09T04:30:07.498Z,46.00
2018-05-09T04:32:35.956Z,45.00
2018-05-09T04:35:03.499Z,43.50
2018-05-09T04:37:31.057Z,42.80
2018-05-09T04:39:58.555Z,41.30
2018-05-09T04:42:26.425Z,40.30
2018-05-09T04:44:54.078Z,38.60
2018-05-09T04:47:21.614Z,37.90
2018-05-09T04:49:49.190Z,37.30
2018-05-09T04:52:17.350Z,36.60
2018-05-09T04:54:44.895Z,36.40
2018-05-09T04:57:12.570Z,35.90
2018-05-09T04:59:40.343Z,34.40
2018-05-09T05:02:07.950Z,33.80
2018-05-09T05:04:36.402Z,33.00
2018-05-09T05:07:03.964Z,32.80
2018-05-09T05:09:32.397Z,31.80
2018-05-09T05:12:00.706Z,32.00
2018-05-09T05:14:28.626Z,31.50
2018-05-09T05:16:56.962Z,30.00
2018-05-09T05:19:24.475Z,30.00
2018-05-09T05:21:52.034Z,29.40
2018-05-09T05:24:21.103Z,28.60
2018-05-09T05:26:49.279Z,28.60
2018-05-09T05:29:16.854Z,28.40
2018-05-09T05:31:45.285Z,27.90
2018-05-09T05:34:12.806Z,27.30
2018-05-09T05:36:41.288Z,26.50
2018-05-09T05:39:09.020Z,26.50
2018-05-09T05:41:36.670Z,26.20
2018-05-09T05:44:04.138Z,25.70
2018-05-09T05:46:32.182Z,25.20
2018-05-09T05:48:59.725Z,24.90
2018-05-09T05:51:27.845Z,24.50
2018-05-09T05:53:55.388Z,24.30
2018-05-09T05:56:22.899Z,24.60
2018-05-09T05:58:52.332Z,24.80
2018-05-09T06:01:19.929Z,24.70
2018-05-09T06:03:47.477Z,24.80
2018-05-09T06:06:15.096Z,24.30
2018-05-09T06:08:43.011Z,24.50
2018-05-09T06:11:10.943Z,24.60
2018-05-09T06:13:38.800Z,24.40
2018-05-09T06:16:06.812Z,24.60
2018-05-09T06:18:34.400Z,24.60
2018-05-09T06:21:02.152Z,24.50
2018-05-09T06:23:29.783Z,24.30
2018-05-09T06:25:57.572Z,24.40
2018-05-09T06:28:25.130Z,24.90
2018-05-09T06:30:53.105Z,25.00
2018-05-09T06:33:21.263Z,24.70
2018-05-09T06:35:49.830Z,24.10
2018-05-09T06:38:17.380Z,23.90
2018-05-09T06:40:44.940Z,24.30
2018-05-09T06:43:12.879Z,24.60
2018-05-09T06:45:41.497Z,25.30
2018-05-09T06:48:09.106Z,25.20
2018-05-09T06:50:37.733Z,25.10
2018-05-09T06:53:06.226Z,25.10
2018-05-09T06:55:33.770Z,24.90
2018-05-09T06:58:01.337Z,25.20
2018-05-09T07:00:28.889Z,25.10
2018-05-09T07:02:56.436Z,25.50
2018-05-09T07:05:24.067Z,25.50
2018-05-09T07:07:51.699Z,25.60
2018-05-09T07:10:19.438Z,25.10
2018-05-09T07:12:47.685Z,25.00
2018-05-09T07:15:16.799Z,25.50
2018-05-09T07:17:45.111Z,26.00
2018-05-09T07:20:13.038Z,26.00
2018-05-09T07:22:41.437Z,26.80
2018-05-09T07:25:08.995Z,26.70
2018-05-09T07:27:36.529Z,26.90
2018-05-09T07:30:04.117Z,27.30
2018-05-09T07:32:31.640Z,26.80
2018-05-09T07:34:59.266Z,27.00
2018-05-09T07:37:26.822Z,27.40
2018-05-09T07:39:54.419Z,28.20
2018-05-09T07:42:22.935Z,29.10
2018-05-09T07:44:50.444Z,29.40
2018-05-09T07:47:17.960Z,29.80
2018-05-09T07:49:46.156Z,30.10
2018-05-09T07:52:13.699Z,30.50
2018-05-09T07:54:41.935Z,30.80
2018-05-09T07:57:09.443Z,31.60
2018-05-09T07:59:37.258Z,30.70
2018-05-09T08:02:04.808Z,30.40
2018-05-09T08:04:32.390Z,30.10
2018-05-09T08:06:59.923Z,29.80
2018-05-09T08:09:27.480Z,30.10
2018-05-09T08:11:55.034Z,30.80
2018-05-09T08:14:22.788Z,30.90
2018-05-09T08:16:50.294Z,31.70
2018-05-09T08:19:18.578Z,33.10
2018-05-09T08:21:47.307Z,33.00
2018-05-09T08:24:14.826Z,34.10
2018-05-09T08:26:42.833Z,34.40
2018-05-09T08:29:10.392Z,35.20
2018-05-09T08:31:37.964Z,36.80
2018-05-09T08:34:05.533Z,36.80
2018-05-09T08:36:33.495Z,37.90
2018-05-09T08:39:01.109Z,38.00
2018-05-09T08:41:30.366Z,39.10
2018-05-09T08:43:58.296Z,39.10
2018-05-09T08:46:25.828Z,39.30
2018-05-09T08:48:53.347Z,39.60
2018-05-09T08:51:21.128Z,40.70
2018-05-09T08:53:49.240Z,40.50
2018-05-09T08:56:17.718Z,41.40
2018-05-09T08:58:46.024Z,41.70
2018-05-09T09:01:13.587Z,41.70
2018-05-09T09:03:41.571Z,41.70
2018-05-09T09:06:09.176Z,41.80
2018-05-09T09:08:36.746Z,41.30
2018-05-09T09:11:04.449Z,41.10
2018-05-09T09:13:32.019Z,41.00
2018-05-09T09:15:59.825Z,40.20
2018-05-09T09:18:28.653Z,40.60
2018-05-09T09:20:56.228Z,40.60
2018-05-09T09:23:24.495Z,40.30
2018-05-09T09:25:52.102Z,40.60
2018-05-09T09:28:20.419Z,41.20
2018-05-09T09:30:48.797Z,40.80
2018-05-09T09:33:17.435Z,40.80
2018-05-09T09:35:45.759Z,39.40
2018-05-09T09:38:13.288Z,39.20
2018-05-09T09:40:40.903Z,39.20
2018-05-09T09:43:09.501Z,38.30
2018-05-09T09:45:37.343Z,39.60
2018-05-09T09:48:05.081Z,39.50
2018-05-09T09:50:33.891Z,39.20
2018-05-09T09:53:02.865Z,39.20
2018-05-09T09:55:31.170Z,38.50
2018-05-09T09:57:58.698Z,38.50
2018-05-09T10:00:26.463Z,38.50
2018-05-09T10:02:54.902Z,38.80
2018-05-09T10:05:22.570Z,38.80
2018-05-09T10:07:50.140Z,37.80
2018-05-09T10:10:17.730Z,37.20
2018-05-09T10:12:45.902Z,36.80
2018-05-09T10:15:14.296Z,35.80
2018-05-09T10:17:41.953Z,35.80
2018-05-09T10:20:11.208Z,36.10
2018-05-09T10:22:39.520Z,36.10
2018-05-09T10:25:09.024Z,35.90
2018-05-09T10:27:38.049Z,36.90
2018-05-09T10:30:05.580Z,37.00
2018-05-09T10:32:33.191Z,36.70
2018-05-09T10:35:01.580Z,36.70
2018-05-09T10:37:29.389Z,36.10
2018-05-09T10:39:57.478Z,36.90
2018-05-09T10:42:25.064Z,36.50
2018-05-09T10:44:53.330Z,36.40
2018-05-09T10:47:20.942Z,36.60
2018-05-09T10:49:50.377Z,36.70
2018-05-09T10:52:17.916Z,36.90
2018-05-09T10:54:45.952Z,37.40
2018-05-09T10:57:13.685Z,37.50
2018-05-09T10:59:41.139Z,37.90
2018-05-09T11:02:09.236Z,38.20
2018-05-09T11:04:36.775Z,37.60
2018-05-09T11:07:04.876Z,37.70
2018-05-09T11:09:32.647Z,37.30
2018-05-09T11:12:00.379Z,37.90
2018-05-09T11:14:27.904Z,37.90
2018-05-09T11:16:55.544Z,37.80
2018-05-09T11:19:23.802Z,38.20
2018-05-09T11:21:51.361Z,37.40
2018-05-09T11:24:19.590Z,37.10
2018-05-09T11:26:47.143Z,36.90
2018-05-09T11:29:14.727Z,36.40
2018-05-09T11:31:42.470Z,36.60
2018-05-09T11:34:09.995Z,36.70
2018-05-09T11:36:37.627Z,37.10
2018-05-09T11:39:06.268Z,37.10
2018-05-09T11:41:34.056Z,36.70
2018-05-09T11:44:02.675Z,36.80
2018-05-09T11:46:31.564Z,36.80
2018-05-09T11:48:59.155Z,35.70
2018-05-09T11:51:27.092Z,35.80
2018-05-09T11:53:54.961Z,36.10
2018-05-09T11:56:22.979Z,35.80
2018-05-09T11:58:51.307Z,36.00
2018-05-09T12:01:19.104Z,36.10
2018-05-09T12:03:46.654Z,36.70
2018-05-09T12:06:14.206Z,37.10
2018-05-09T12:08:42.264Z,37.10
2018-05-09T12:11:10.311Z,36.90
2018-05-09T12:13:38.683Z,36.90
2018-05-09T12:16:06.549Z,36.60
2018-05-09T12:18:34.343Z,36.50
2018-05-09T12:21:02.069Z,36.70
2018-05-09T12:23:29.629Z,36.70
2018-05-09T12:25:57.461Z,36.70
2018-05-09T12:28:25.481Z,36.90
2018-05-09T12:30:54.114Z,37.70
2018-05-09T12:33:21.681Z,38.00
2018-05-09T12:35:49.330Z,38.30
2018-05-09T12:38:16.878Z,38.60
2018-05-09T12:40:44.427Z,39.20
2018-05-09T12:43:12.313Z,39.30
2018-05-09T12:45:40.773Z,39.20
2018-05-09T12:48:09.297Z,39.60
2018-05-09T12:50:36.953Z,39.30
2018-05-09T12:53:04.492Z,38.80
2018-05-09T12:55:32.245Z,38.50
2018-05-09T12:57:59.822Z,38.20
2018-05-09T13:00:27.600Z,38.00
2018-05-09T13:02:55.943Z,37.70
2018-05-09T13:05:23.947Z,37.20
2018-05-09T13:07:51.504Z,38.10
2018-05-09T13:10:19.546Z,38.00
2018-05-09T13:12:47.183Z,38.50
2018-05-09T13:15:15.228Z,38.60
2018-05-09T13:17:43.191Z,39.00
2018-05-09T13:20:11.727Z,39.10
2018-05-09T13:22:39.341Z,38.70
2018-05-09T13:25:07.570Z,38.60
2018-05-09T13:27:35.543Z,38.80
2018-05-09T13:30:03.091Z,38.00
2018-05-09T13:32:30.625Z,37.60
2018-05-09T13:34:58.190Z,38.00
2018-05-09T13:37:26.990Z,38.00
2018-05-09T13:39:55.223Z,38.00
2018-05-09T13:42:22.756Z,38.70
2018-05-09T13:44:50.741Z,38.10
2018-05-09T13:47:18.334Z,38.50
2018-05-09T13:49:46.123Z,38.40
2018-05-09T13:52:14.495Z,38.70
2018-05-09T13:54:42.018Z,38.70
2018-05-09T13:57:09.609Z,39.00
2018-05-09T13:59:38.176Z,38.80
2018-05-09T14:02:05.737Z,38.80
2018-05-09T14:04:33.427Z,38.10
2018-05-09T14:07:00.986Z,37.80
2018-05-09T14:09:28.625Z,37.70
2018-05-09T14:11:56.135Z,38.10
2018-05-09T14:14:23.738Z,37.90
2018-05-09T14:16:51.450Z,37.50
2018-05-09T14:19:19.432Z,37.40
2018-05-09T14:21:47.080Z,37.10
2018-05-09T14:24:14.813Z,36.90
2018-05-09T14:26:42.504Z,36.70
2018-05-09T14:29:10.847Z,37.00
2018-05-09T14:31:38.533Z,37.30
2018-05-09T14:34:07.444Z,37.50
2018-05-09T14:36:38.875Z,37.30
2018-05-09T14:39:07.235Z,38.00
2018-05-09T14:41:35.714Z,37.20
2018-05-09T14:44:03.483Z,37.30
2018-05-09T14:46:31.858Z,38.60
2018-05-09T14:48:59.514Z,37.90
2018-05-09T14:51:27.831Z,38.40
2018-05-09T14:53:55.398Z,38.40
2018-05-09T14:56:23.037Z,38.10
2018-05-09T14:58:50.662Z,38.60
2018-05-09T15:01:18.381Z,38.70
2018-05-09T15:03:46.103Z,38.80
2018-05-09T15:06:14.525Z,39.00
2018-05-09T15:08:42.322Z,38.60
2018-05-09T15:11:10.765Z,37.90
2018-05-09T15:13:38.499Z,38.20
2018-05-09T15:16:07.756Z,38.40
2018-05-09T15:18:35.300Z,38.40
2018-05-09T15:21:02.871Z,38.70
2018-05-09T15:23:30.830Z,38.60
2018-05-09T15:25:59.200Z,38.70
2018-05-09T15:28:27.741Z,38.30
2018-05-09T15:30:56.239Z,38.30
2018-05-09T15:33:24.942Z,37.60
2018-05-09T15:35:52.601Z,37.60
2018-05-09T15:38:20.248Z,37.70
2018-05-09T15:40:48.201Z,37.90
2018-05-09T15:43:16.514Z,38.10
2018-05-09T15:45:44.195Z,38.00
2018-05-09T15:48:11.932Z,38.00
2018-05-09T15:50:39.495Z,37.80
2018-05-09T15:53:07.060Z,38.30
2018-05-09T15:55:34.659Z,38.00
2018-05-09T15:58:02.362Z,38.40
2018-05-09T16:00:30.658Z,39.00
2018-05-09T16:02:58.247Z,39.00
2018-05-09T16:05:25.771Z,39.40
2018-05-09T16:07:54.800Z,39.60
2018-05-09T16:10:22.723Z,39.60
2018-05-09T16:12:51.718Z,39.80
2018-05-09T16:15:19.311Z,39.80
2018-05-09T16:17:46.986Z,39.80
2018-05-09T16:20:14.567Z,40.20
2018-05-09T16:22:42.195Z,40.00
2018-05-09T16:25:10.149Z,40.20
2018-05-09T16:27:37.805Z,40.00
2018-05-09T16:30:06.282Z,40.30
2018-05-09T16:32:34.613Z,40.10
2018-05-09T16:35:02.198Z,40.10
2018-05-09T16:37:29.868Z,40.00
2018-05-09T16:39:57.569Z,39.90
2018-05-09T16:42:25.409Z,40.10
2018-05-09T16:44:53.775Z,40.20
2018-05-09T16:47:21.365Z,40.10
2018-05-09T16:49:52.135Z,40.60
2018-05-09T16:52:19.826Z,41.10
2018-05-09T16:54:47.535Z,41.30
2018-05-09T16:57:15.983Z,41.70
2018-05-09T16:59:43.866Z,41.90
2018-05-09T17:02:11.791Z,42.10
2018-05-09T17:04:39.371Z,42.40
2018-05-09T17:07:07.087Z,42.50
2018-05-09T17:09:35.038Z,42.40
2018-05-09T17:12:03.338Z,42.30
2018-05-09T17:14:30.836Z,42.30
2018-05-09T17:16:58.475Z,42.30
2018-05-09T17:19:26.630Z,42.50
2018-05-09T17:22:11.622Z,42.50
2018-05-09T17:24:39.196Z,42.50
2018-05-09T17:27:07.048Z,42.60
2018-05-09T17:29:34.710Z,42.50
2018-05-09T17:32:02.247Z,42.60
2018-05-09T17:34:30.876Z,42.70
2018-05-09T17:36:58.575Z,42.80
2018-05-09T17:39:26.232Z,42.90
2018-05-09T17:41:53.981Z,42.90
2018-05-09T17:44:22.302Z,42.90
2018-05-09T17:46:50.370Z,43.00
2018-05-09T17:49:18.687Z,42.80
2018-05-09T17:51:47.029Z,42.80
2018-05-09T17:54:14.592Z,42.70
2018-05-09T17:56:42.289Z,42.80
2018-05-09T17:59:09.913Z,42.40
2018-05-09T18:01:37.562Z,42.70
2018-05-09T18:04:05.196Z,42.60
2018-05-09T18:06:32.735Z,42.90
2018-05-09T18:09:00.561Z,43.90
2018-05-09T18:11:28.161Z,50.20
2018-05-09T18:13:55.989Z,57.30
2018-05-09T18:16:23.538Z,93.20
2018-05-09T18:18:51.218Z,96.20
2018-05-09T18:21:18.837Z,93.90
2018-05-09T18:23:48.035Z,92.10
2018-05-09T18:26:15.596Z,91.50
2018-05-09T18:28:44.082Z,91.60
2018-05-09T18:31:11.848Z,91.40
2018-05-09T18:33:41.877Z,80.00
2018-05-09T18:36:09.543Z,79.90
2018-05-09T18:38:37.125Z,75.90
2018-05-09T18:41:04.738Z,84.10
2018-05-09T18:43:32.664Z,95.20
2018-05-09T18:46:00.735Z,94.50
2018-05-09T18:48:28.517Z,99.90
2018-05-09T18:50:56.691Z,97.70
2018-05-09T18:53:24.248Z,96.40
2018-05-09T18:55:52.633Z,97.20
2018-05-09T18:58:20.675Z,95.50
2018-05-09T19:00:48.408Z,96.40
2018-05-09T19:03:16.111Z,94.60
2018-05-09T19:05:44.107Z,94.80
2018-05-09T19:08:11.679Z,95.90
2018-05-09T19:10:39.877Z,95.80
2018-05-09T19:13:07.581Z,98.20
2018-05-09T19:15:35.291Z,99.10
2018-05-09T19:18:02.816Z,97.80
2018-05-09T19:20:30.717Z,93.00
2018-05-09T19:22:58.838Z,92.00
2018-05-09T19:25:27.277Z,90.40
2018-05-09T19:27:54.789Z,90.40
2018-05-09T19:30:22.301Z,88.60
2018-05-09T19:32:50.302Z,88.60
2018-05-09T19:35:18.596Z,90.50
2018-05-09T19:37:46.261Z,88.20
2018-05-09T19:40:13.974Z,87.60
2018-05-09T19:42:41.542Z,91.10
2018-05-09T19:45:09.860Z,92.00
2018-05-09T19:47:37.417Z,92.00
2018-05-09T19:50:05.062Z,88.90
2018-05-09T19:52:32.643Z,83.00
2018-05-09T19:55:00.304Z,86.00
2018-05-09T19:57:27.834Z,79.30
2018-05-09T19:59:55.830Z,82.30
2018-05-09T20:02:23.426Z,78.80
2018-05-09T20:04:51.020Z,76.10
2018-05-09T20:07:19.417Z,74.90
2018-05-09T20:09:47.166Z,74.90
2018-05-09T20:12:15.975Z,75.40
2018-05-09T20:14:44.854Z,75.40
2018-05-09T20:17:12.414Z,75.50
2018-05-09T20:19:40.458Z,75.40
2018-05-09T20:22:09.196Z,74.90
2018-05-09T20:24:36.794Z,74.90
2018-05-09T20:27:04.344Z,75.20
2018-05-09T20:29:32.150Z,75.10
2018-05-09T20:32:12.337Z,74.80
2018-05-09T20:34:41.019Z,74.40
2018-05-09T20:37:08.715Z,74.90
2018-05-09T20:39:36.325Z,75.90
2018-05-09T20:42:04.016Z,75.90
2018-05-09T20:44:32.394Z,74.90
2018-05-09T20:47:00.177Z,74.90
2018-05-09T20:49:27.831Z,75.40
2018-05-09T20:51:55.394Z,75.10
2018-05-09T20:54:23.183Z,74.30
2018-05-09T20:56:54.784Z,72.80
2018-05-09T20:59:22.371Z,72.80
2018-05-09T21:01:49.906Z,70.70
2018-05-09T21:04:17.514Z,70.70
2018-05-09T21:06:45.192Z,71.20
2018-05-09T21:09:13.136Z,71.90
2018-05-09T21:11:40.812Z,72.20
2018-05-09T21:14:08.423Z,72.00
2018-05-09T21:16:36.509Z,72.40
2018-05-09T21:19:04.110Z,72.50
2018-05-09T21:21:31.661Z,72.50
2018-05-09T21:23:59.391Z,72.00
2018-05-09T21:26:26.919Z,71.90
2018-05-09T21:28:55.253Z,72.20
2018-05-09T21:31:23.171Z,72.10
2018-05-09T21:33:50.752Z,72.40
2018-05-09T21:36:18.356Z,72.20
2018-05-09T21:38:47.396Z,73.10
2018-05-09T21:41:15.594Z,72.60
2018-05-09T21:43:43.304Z,72.90
2018-05-09T21:46:11.249Z,73.20
2018-05-09T21:48:39.703Z,73.70
2018-05-09T21:51:07.562Z,73.80
2018-05-09T21:53:35.165Z,74.30
2018-05-09T21:56:02.773Z,74.00
2018-05-09T21:58:30.518Z,74.20
2018-05-09T22:00:58.046Z,74.20
2018-05-09T22:03:26.444Z,74.80
2018-05-09T22:05:54.253Z,74.70
2018-05-09T22:08:21.835Z,74.90
2018-05-09T22:10:49.435Z,74.80
2018-05-09T22:15:51.902Z,75.40
2018-05-09T22:18:19.926Z,75.10
2018-05-09T22:20:47.510Z,75.30
2018-05-09T22:23:15.109Z,75.40
2018-05-09T22:25:42.665Z,75.30
2018-05-09T22:28:10.235Z,74.80
2018-05-09T22:30:38.749Z,75.30
2018-05-09T22:33:06.694Z,75.40
2018-05-09T22:35:34.414Z,75.60
2018-05-09T22:38:02.149Z,75.50
2018-05-09T22:40:29.714Z,75.30
2018-05-09T22:42:57.244Z,75.70
2018-05-09T22:45:24.800Z,75.60
2018-05-09T22:47:52.628Z,76.20
2018-05-09T22:50:20.213Z,76.60
2018-05-09T22:52:47.808Z,76.70
2018-05-09T22:55:16.269Z,77.10
2018-05-09T22:57:43.820Z,77.10
2018-05-09T23:00:11.414Z,77.00
2018-05-09T23:02:39.704Z,77.20
2018-05-09T23:05:08.715Z,77.10
2018-05-09T23:07:36.434Z,76.70
2018-05-09T23:10:04.807Z,76.90
2018-05-09T23:12:32.353Z,76.90
2018-05-09T23:14:59.908Z,76.80
2018-05-09T23:17:27.447Z,76.40
2018-05-09T23:19:55.132Z,76.60
2018-05-09T23:22:23.272Z,76.70
2018-05-09T23:24:50.864Z,76.50
2018-05-09T23:27:18.510Z,76.80
2018-05-09T23:29:46.847Z,76.70
2018-05-09T23:32:14.384Z,77.00
2018-05-09T23:34:42.528Z,77.10
2018-05-09T23:37:10.221Z,77.10
2018-05-09T23:39:38.656Z,77.40
2018-05-09T23:42:06.209Z,77.40
2018-05-09T23:44:33.723Z,77.30
2018-05-09T23:47:02.048Z,78.30
2018-05-09T23:49:29.616Z,78.30
2018-05-09T23:51:57.184Z,78.60
2018-05-09T23:54:25.227Z,79.00
2018-05-09T23:56:53.701Z,79.90
2018-05-09T23:59:23.706Z,79.30
